Time;durP1;ratioP1;P1;durP2;ratioP2;P2;SDS_P1;SDS_P2;PMS_P1;PMS_P2;Temp;Humidity;BMP_temperature;BMP_pressure;BME280_temperature;BME280_humidity;BME280_pressure;Samples;Min_cycle;Max_cycle;Signal;HPM_P1;HPM_P2
2021/05/05 00:00:29;;;;;;;1.30;0.40;;;12.00;99.90;;;;;;5036720;28;20561;-76
2021/05/05 00:02:56;;;;;;;0.30;0.30;;;12.00;99.90;;;;;;5055415;28;20851;-77
2021/05/05 00:05:24;;;;;;;0.40;0.40;;;12.00;99.90;;;;;;5038814;28;20992;-75
2021/05/05 00:07:51;;;;;;;0.40;0.40;;;12.00;99.90;;;;;;5045310;28;20577;-76
2021/05/05 00:10:18;;;;;;;0.50;0.40;;;12.00;99.90;;;;;;5050157;28;20517;-77
2021/05/05 00:12:46;;;;;;;0.43;0.40;;;12.20;99.90;;;;;;5038778;28;20479;-76
2021/05/05 00:15:17;;;;;;;0.67;0.50;;;12.00;99.90;;;;;;5040410;28;20471;-77
2021/05/05 00:17:45;;;;;;;0.40;0.40;;;12.00;99.90;;;;;;5049798;28;20460;-77
2021/05/05 00:20:13;;;;;;;0.40;0.40;;;12.00;99.90;;;;;;5044267;28;21551;-76
2021/05/05 00:22:40;;;;;;;0.40;0.40;;;11.90;99.90;;;;;;5041586;28;20456;-76
2021/05/05 00:25:09;;;;;;;0.30;0.30;;;12.00;99.90;;;;;;5055165;28;20476;-77
2021/05/05 00:27:37;;;;;;;0.80;0.40;;;11.90;99.90;;;;;;5050219;28;20469;-77
2021/05/05 00:30:07;;;;;;;0.57;0.43;;;11.80;99.90;;;;;;5043743;28;20500;-77
2021/05/05 00:32:35;;;;;;;0.40;0.40;;;11.80;99.90;;;;;;5040765;28;20543;-76
2021/05/05 00:35:02;;;;;;;0.40;0.40;;;11.80;99.90;;;;;;5044777;28;20470;-77
2021/05/05 00:37:29;;;;;;;0.40;0.40;;;11.80;99.90;;;;;;5044980;28;20545;-76
2021/05/05 00:39:57;;;;;;;0.40;0.40;;;11.80;99.90;;;;;;5060479;28;20490;-76
2021/05/05 00:42:25;;;;;;;1.03;0.40;;;11.80;99.90;;;;;;5036418;28;21010;-77
2021/05/05 00:44:57;;;;;;;1.80;0.50;;;11.80;99.90;;;;;;5045289;28;20473;-77
2021/05/05 00:47:28;;;;;;;0.50;0.47;;;11.70;99.90;;;;;;5054717;28;20568;-77
2021/05/05 00:49:56;;;;;;;0.43;0.43;;;11.80;99.90;;;;;;5042273;28;20486;-76
2021/05/05 00:52:24;;;;;;;0.50;0.50;;;11.80;99.90;;;;;;5042918;28;20549;-76
2021/05/05 00:54:51;;;;;;;0.60;0.50;;;11.70;99.90;;;;;;5041446;28;21139;-76
2021/05/05 00:57:19;;;;;;;0.83;0.40;;;11.70;99.90;;;;;;5044825;28;21162;-76
2021/05/05 00:59:47;;;;;;;0.60;0.53;;;11.70;99.90;;;;;;5048807;28;20482;-76
2021/05/05 01:02:14;;;;;;;0.50;0.40;;;11.70;99.90;;;;;;5046302;28;20454;-76
2021/05/05 01:04:42;;;;;;;0.63;0.60;;;11.70;99.90;;;;;;5055072;28;20469;-76
2021/05/05 01:07:11;;;;;;;0.50;0.50;;;11.70;99.90;;;;;;5048728;28;20484;-77
2021/05/05 01:09:42;;;;;;;0.40;0.40;;;11.70;99.90;;;;;;5054042;28;20955;-78
2021/05/05 01:12:10;;;;;;;0.60;0.53;;;11.70;99.90;;;;;;5048149;28;20499;-78
2021/05/05 01:14:37;;;;;;;0.50;0.50;;;11.60;99.90;;;;;;5039276;28;21352;-76
2021/05/05 01:17:06;;;;;;;1.03;0.60;;;11.60;99.90;;;;;;5036014;28;20470;-77
2021/05/05 01:19:33;;;;;;;0.47;0.47;;;11.70;99.90;;;;;;5050341;28;21117;-77
2021/05/05 01:22:02;;;;;;;0.40;0.40;;;11.70;99.90;;;;;;5043589;28;20449;-78
2021/05/05 01:24:32;;;;;;;2.50;0.50;;;11.70;99.90;;;;;;5047896;28;20976;-76
2021/05/05 01:26:59;;;;;;;0.40;0.40;;;11.60;99.90;;;;;;5049307;28;20515;-73
2021/05/05 01:29:27;;;;;;;0.73;0.40;;;11.50;99.90;;;;;;5053968;28;20494;-76
2021/05/05 01:31:54;;;;;;;0.40;0.40;;;11.40;99.90;;;;;;5051722;28;20583;-76
2021/05/05 01:34:21;;;;;;;2.30;0.50;;;11.50;99.90;;;;;;5036888;28;20460;-77
2021/05/05 01:36:48;;;;;;;1.00;0.50;;;11.60;99.90;;;;;;5038160;28;20475;-78
2021/05/05 01:39:18;;;;;;;0.50;0.50;;;11.60;99.90;;;;;;5056024;28;20463;-77
2021/05/05 01:41:47;;;;;;;0.70;0.50;;;11.30;99.90;;;;;;5040796;28;20466;-77
2021/05/05 01:44:15;;;;;;;0.50;0.47;;;11.30;99.90;;;;;;5036264;28;20977;-78
2021/05/05 01:46:47;;;;;;;0.80;0.40;;;11.40;99.90;;;;;;5040184;28;20493;-76
2021/05/05 01:49:19;;;;;;;0.40;0.40;;;11.30;99.90;;;;;;5058186;28;20539;-77
2021/05/05 01:51:46;;;;;;;1.10;0.50;;;11.20;99.90;;;;;;5037600;28;20557;-77
2021/05/05 01:54:13;;;;;;;0.80;0.50;;;11.10;99.90;;;;;;5050671;28;20462;-76
2021/05/05 01:56:41;;;;;;;0.70;0.60;;;11.00;99.90;;;;;;5046293;28;20464;-76
2021/05/05 01:59:08;;;;;;;0.50;0.50;;;11.10;99.90;;;;;;5041131;28;20464;-78
2021/05/05 02:01:36;;;;;;;0.60;0.47;;;11.10;99.90;;;;;;5035697;28;21410;-74
2021/05/05 02:04:03;;;;;;;0.40;0.40;;;11.20;99.90;;;;;;5037349;28;22543;-76
2021/05/05 02:06:31;;;;;;;1.17;0.40;;;11.10;99.90;;;;;;5038974;28;20528;-76
2021/05/05 02:09:00;;;;;;;0.50;0.50;;;11.00;99.90;;;;;;5056822;28;20488;-75
2021/05/05 02:11:28;;;;;;;0.87;0.40;;;10.90;99.90;;;;;;5045831;28;20470;-77
2021/05/05 02:13:56;;;;;;;0.70;0.50;;;11.10;99.90;;;;;;5036486;28;20562;-76
2021/05/05 02:16:23;;;;;;;0.93;0.60;;;11.20;99.90;;;;;;5048610;28;21006;-76
2021/05/05 02:18:50;;;;;;;0.40;0.40;;;11.10;99.90;;;;;;5039442;28;20464;-76
2021/05/05 02:21:17;;;;;;;0.40;0.40;;;11.30;99.90;;;;;;5053687;28;21089;-76
2021/05/05 02:23:44;;;;;;;0.40;0.40;;;11.30;99.90;;;;;;5054263;28;21502;-76
2021/05/05 02:26:11;;;;;;;0.90;0.50;;;11.20;99.90;;;;;;5053954;28;20461;-75
2021/05/05 02:28:38;;;;;;;0.60;0.40;;;11.20;99.90;;;;;;5053582;28;20461;-75
2021/05/05 02:31:06;;;;;;;1.13;0.60;;;11.10;99.90;;;;;;5052618;28;20508;-76
2021/05/05 02:33:34;;;;;;;1.70;0.50;;;11.00;99.90;;;;;;5039946;28;20485;-75
2021/05/05 02:36:01;;;;;;;0.40;0.40;;;10.90;99.90;;;;;;5040810;28;20502;-76
2021/05/05 02:38:28;;;;;;;0.43;0.40;;;10.90;99.90;;;;;;5049659;28;20466;-75
2021/05/05 02:40:55;;;;;;;1.10;0.63;;;10.90;1.00;;;;;;5042935;28;20481;-78
2021/05/05 02:43:23;;;;;;;0.50;0.50;;;10.90;1.00;;;;;;5043424;28;21439;-77
2021/05/05 02:45:50;;;;;;;0.57;0.57;;;10.90;1.00;;;;;;5046154;28;21336;-76
2021/05/05 02:48:18;;;;;;;1.10;0.50;;;10.90;1.00;;;;;;5042584;28;20693;-75
2021/05/05 02:50:45;;;;;;;0.60;0.50;;;11.10;1.00;;;;;;5055677;28;20485;-77
2021/05/05 02:53:12;;;;;;;0.57;0.50;;;10.80;1.00;;;;;;5050432;28;20573;-76
2021/05/05 02:55:39;;;;;;;0.40;0.40;;;10.90;1.00;;;;;;5037170;28;21444;-77
2021/05/05 02:58:06;;;;;;;0.40;0.40;;;10.90;1.00;;;;;;5035863;28;21266;-75
2021/05/05 03:00:33;;;;;;;0.80;0.50;;;10.90;1.00;;;;;;5048585;28;20494;-77
2021/05/05 03:03:01;;;;;;;0.50;0.50;;;10.90;1.00;;;;;;5050484;28;20551;-78
2021/05/05 03:05:29;;;;;;;1.30;0.50;;;10.80;1.00;;;;;;5052043;28;20543;-76
2021/05/05 03:07:56;;;;;;;0.50;0.50;;;10.70;1.00;;;;;;5056173;28;20971;-75
2021/05/05 03:10:24;;;;;;;0.50;0.50;;;10.60;1.00;;;;;;5051629;28;20484;-74
2021/05/05 03:12:51;;;;;;;0.50;0.50;;;10.50;1.00;;;;;;5040605;28;21009;-73
2021/05/05 03:15:18;;;;;;;0.50;0.50;;;10.60;1.00;;;;;;5035425;28;20974;-74
2021/05/05 03:17:52;;;;;;;0.77;0.50;;;10.60;1.00;;;;;;5034639;28;20624;-74
2021/05/05 03:20:19;;;;;;;0.70;0.50;;;10.50;1.00;;;;;;5042901;28;20487;-75
2021/05/05 03:22:47;;;;;;;2.70;0.60;;;10.60;1.00;;;;;;5046426;28;20462;-76
2021/05/05 03:25:15;;;;;;;0.60;0.60;;;10.60;1.00;;;;;;5037329;28;20770;-78
2021/05/05 03:27:42;;;;;;;1.40;0.70;;;10.60;1.00;;;;;;5041804;28;20732;-75
2021/05/05 03:30:10;;;;;;;0.50;0.50;;;10.60;1.00;;;;;;5047590;28;20498;-76
2021/05/05 03:32:39;;;;;;;0.60;0.60;;;10.60;1.00;;;;;;5039592;28;20818;-76
2021/05/05 03:35:08;;;;;;;0.93;0.60;;;10.60;1.00;;;;;;5051767;28;20468;-76
2021/05/05 03:37:36;;;;;;;2.87;0.70;;;10.60;1.00;;;;;;5047781;28;20499;-75
2021/05/05 03:40:05;;;;;;;1.80;0.60;;;10.50;1.00;;;;;;5050205;28;20496;-76
2021/05/05 03:42:33;;;;;;;0.50;0.50;;;10.60;1.00;;;;;;5042235;28;20520;-74
2021/05/05 03:45:01;;;;;;;0.53;0.50;;;10.40;1.00;;;;;;5034638;28;20468;-75
2021/05/05 03:47:28;;;;;;;1.90;0.90;;;10.40;1.00;;;;;;5040122;28;20476;-76
2021/05/05 03:49:56;;;;;;;1.87;0.80;;;10.50;1.00;;;;;;5039476;28;20489;-75
2021/05/05 03:52:23;;;;;;;2.33;0.90;;;10.70;1.00;;;;;;5041492;28;20465;-74
2021/05/05 03:54:50;;;;;;;1.33;0.80;;;10.70;1.00;;;;;;5045691;28;21815;-75
2021/05/05 03:57:18;;;;;;;0.90;0.60;;;10.70;1.00;;;;;;5043777;28;20490;-74
2021/05/05 03:59:45;;;;;;;0.87;0.50;;;10.80;1.00;;;;;;5045950;28;20551;-75
2021/05/05 04:02:12;;;;;;;0.63;0.63;;;10.70;1.00;;;;;;5038536;28;20457;-73
2021/05/05 04:04:40;;;;;;;0.53;0.50;;;10.70;1.00;;;;;;5040281;28;20471;-74
2021/05/05 04:07:07;;;;;;;0.60;0.50;;;10.70;1.00;;;;;;5040847;28;20864;-75
2021/05/05 04:09:35;;;;;;;2.60;0.50;;;10.80;1.00;;;;;;5039784;28;21079;-72
2021/05/05 04:12:03;;;;;;;0.60;0.60;;;10.50;1.00;;;;;;5036097;28;20467;-76
2021/05/05 04:14:31;;;;;;;1.13;1.13;;;10.90;1.00;;;;;;5041141;28;20241;-77
2021/05/05 04:17:16;;;;;;;2.07;0.60;;;10.90;1.00;;;;;;5038066;28;20579;-75
2021/05/05 04:20:03;;;;;;;0.77;0.50;;;10.80;99.90;;;;;;5055671;28;20538;-73
2021/05/05 04:22:48;;;;;;;0.60;0.50;;;10.80;99.90;;;;;;5039509;28;20463;-75
2021/05/05 04:25:34;;;;;;;0.50;0.50;;;10.80;99.90;;;;;;5054165;28;20463;-74
2021/05/05 04:28:01;;;;;;;0.40;0.40;;;10.70;99.90;;;;;;5039167;28;20980;-74
2021/05/05 04:30:29;;;;;;;0.40;0.40;;;10.80;99.90;;;;;;5046530;28;20488;-75
2021/05/05 04:32:57;;;;;;;0.60;0.50;;;10.80;99.90;;;;;;5041927;28;20482;-75
2021/05/05 04:35:24;;;;;;;0.60;0.50;;;10.80;99.90;;;;;;5047378;28;20456;-76
2021/05/05 04:37:51;;;;;;;0.50;0.50;;;10.80;99.90;;;;;;5059146;28;20464;-76
2021/05/05 04:40:19;;;;;;;0.40;0.40;;;10.70;99.90;;;;;;5037792;28;20525;-76
2021/05/05 04:42:46;;;;;;;1.27;0.50;;;10.60;99.90;;;;;;5052147;28;20468;-74
2021/05/05 04:45:13;;;;;;;1.83;0.47;;;10.60;99.90;;;;;;5041777;28;21178;-74
2021/05/05 04:47:41;;;;;;;0.80;0.60;;;10.50;99.90;;;;;;5052774;28;20506;-74
2021/05/05 04:50:10;;;;;;;0.60;0.50;;;10.60;99.90;;;;;;5041830;28;20477;-75
2021/05/05 04:52:38;;;;;;;1.43;0.70;;;10.60;99.90;;;;;;5049157;28;21000;-76
2021/05/05 04:55:07;;;;;;;0.50;0.50;;;10.50;1.00;;;;;;5041866;28;20471;-74
2021/05/05 04:57:34;;;;;;;1.80;0.50;;;10.50;1.00;;;;;;5046099;28;20527;-76
2021/05/05 05:00:01;;;;;;;0.60;0.50;;;10.50;1.00;;;;;;5049846;28;20480;-74
2021/05/05 05:02:28;;;;;;;0.50;0.50;;;10.60;99.90;;;;;;5034673;28;20775;-75
2021/05/05 05:04:57;;;;;;;0.80;0.50;;;10.60;99.90;;;;;;5040147;28;21027;-75
2021/05/05 05:07:24;;;;;;;1.27;0.50;;;10.70;99.90;;;;;;5047678;28;20471;-75
2021/05/05 05:09:51;;;;;;;0.47;0.47;;;10.70;99.90;;;;;;5035656;28;20464;-74
2021/05/05 05:12:18;;;;;;;0.77;0.60;;;10.50;99.90;;;;;;5043265;28;20199;-74
2021/05/05 05:14:46;;;;;;;0.50;0.40;;;10.80;99.90;;;;;;5037829;28;21428;-74
2021/05/05 05:17:13;;;;;;;0.60;0.60;;;10.30;99.90;;;;;;5041449;28;20527;-75
2021/05/05 05:19:40;;;;;;;0.60;0.60;;;10.40;1.00;;;;;;5040277;28;21340;-76
2021/05/05 05:22:08;;;;;;;1.57;0.50;;;10.20;99.90;;;;;;5042359;28;20467;-75
2021/05/05 05:24:35;;;;;;;0.53;0.53;;;10.20;1.00;;;;;;5038023;28;20525;-75
2021/05/05 05:27:02;;;;;;;2.10;0.47;;;10.10;1.00;;;;;;5042536;28;20880;-73
2021/05/05 05:29:30;;;;;;;0.70;0.70;;;10.20;1.00;;;;;;5048262;28;21289;-76
2021/05/05 05:31:57;;;;;;;0.60;0.60;;;10.20;1.00;;;;;;5039469;28;20909;-74
2021/05/05 05:34:25;;;;;;;1.33;0.60;;;10.30;1.00;;;;;;5044342;28;20482;-75
2021/05/05 05:36:52;;;;;;;2.17;0.60;;;10.50;1.00;;;;;;5053297;28;20500;-74
2021/05/05 05:39:20;;;;;;;0.63;0.63;;;10.50;1.00;;;;;;5043930;28;20586;-75
2021/05/05 05:41:47;;;;;;;0.80;0.70;;;10.60;99.90;;;;;;5053262;28;20987;-76
2021/05/05 05:44:14;;;;;;;1.40;0.70;;;10.50;1.00;;;;;;5048846;28;20471;-74
2021/05/05 05:46:41;;;;;;;0.70;0.70;;;10.60;1.00;;;;;;5048421;28;20207;-76
2021/05/05 05:49:10;;;;;;;1.63;0.80;;;10.60;99.90;;;;;;5038921;28;20876;-75
2021/05/05 05:51:37;;;;;;;0.60;0.60;;;10.60;99.90;;;;;;5039635;28;20492;-75
2021/05/05 05:54:06;;;;;;;0.83;0.83;;;10.50;99.90;;;;;;5050927;28;20482;-75
2021/05/05 05:56:34;;;;;;;3.17;1.00;;;10.50;99.90;;;;;;5047794;28;20473;-75
2021/05/05 05:59:02;;;;;;;3.33;1.13;;;10.40;99.90;;;;;;5033823;28;20488;-75
2021/05/05 06:01:29;;;;;;;1.10;1.00;;;10.30;99.90;;;;;;5050084;28;20832;-75
2021/05/05 06:03:56;;;;;;;1.33;0.73;;;10.30;99.90;;;;;;5045415;28;20457;-75
2021/05/05 06:06:23;;;;;;;1.13;0.80;;;10.20;99.90;;;;;;5039890;28;20475;-74
2021/05/05 06:08:51;;;;;;;3.40;1.27;;;10.10;99.90;;;;;;5032627;28;20473;-75
2021/05/05 06:11:18;;;;;;;2.77;1.20;;;10.20;99.90;;;;;;5033675;28;20492;-75
2021/05/05 06:13:46;;;;;;;2.10;0.90;;;10.30;99.90;;;;;;5034049;28;20521;-76
2021/05/05 06:16:14;;;;;;;3.70;1.70;;;10.30;99.90;;;;;;5048697;28;20463;-76
2021/05/05 06:18:42;;;;;;;3.73;1.73;;;10.30;99.90;;;;;;5050426;28;20477;-75
2021/05/05 06:21:09;;;;;;;4.33;1.87;;;10.30;99.90;;;;;;5053995;28;20503;-76
2021/05/05 06:23:37;;;;;;;2.20;1.10;;;10.30;99.90;;;;;;5054385;28;20465;-76
2021/05/05 06:26:04;;;;;;;1.67;0.90;;;10.30;99.90;;;;;;5047645;28;20567;-76
2021/05/05 06:28:31;;;;;;;1.73;0.90;;;10.30;99.90;;;;;;5054208;28;20861;-76
2021/05/05 06:31:00;;;;;;;1.40;0.80;;;10.20;99.90;;;;;;5050785;28;20503;-77
2021/05/05 06:33:28;;;;;;;2.40;0.70;;;10.30;99.90;;;;;;5052824;28;20488;-75
2021/05/05 06:35:56;;;;;;;0.80;0.80;;;10.30;99.90;;;;;;5054620;28;20489;-77
2021/05/05 06:38:23;;;;;;;3.80;0.80;;;10.40;99.90;;;;;;5047199;28;20943;-75
2021/05/05 06:40:51;;;;;;;1.60;0.80;;;10.60;99.90;;;;;;5049688;28;20491;-75
2021/05/05 06:43:18;;;;;;;0.60;0.60;;;10.80;99.90;;;;;;5049291;28;20466;-74
2021/05/05 06:45:45;;;;;;;3.30;0.80;;;11.00;99.90;;;;;;5052629;28;20475;-74
2021/05/05 06:48:18;;;;;;;1.10;0.70;;;11.20;99.90;;;;;;5045659;28;20472;-75
2021/05/05 06:50:45;;;;;;;1.10;0.90;;;11.60;99.90;;;;;;5057444;28;20536;-76
2021/05/05 06:53:12;;;;;;;0.93;0.73;;;11.70;99.90;;;;;;5046458;28;20482;-76
2021/05/05 06:55:43;;;;;;;1.57;1.13;;;11.90;99.90;;;;;;5054851;28;20564;-76
2021/05/05 06:58:10;;;;;;;0.90;0.80;;;12.00;99.90;;;;;;5053046;28;20458;-75
2021/05/05 07:00:37;;;;;;;2.33;0.80;;;12.10;99.90;;;;;;5053193;28;20483;-76
2021/05/05 07:03:05;;;;;;;2.50;0.80;;;12.20;99.90;;;;;;5057192;28;20450;-76
2021/05/05 07:05:33;;;;;;;0.80;0.80;;;12.40;99.90;;;;;;5050699;28;20513;-77
2021/05/05 07:08:00;;;;;;;1.70;1.10;;;12.50;99.90;;;;;;5061370;28;20475;-76
2021/05/05 07:10:27;;;;;;;1.07;0.97;;;12.40;99.90;;;;;;5060532;28;20927;-75
2021/05/05 07:12:54;;;;;;;1.90;1.03;;;12.40;99.90;;;;;;5046218;28;20511;-75
2021/05/05 07:15:21;;;;;;;1.47;0.90;;;12.50;99.90;;;;;;5046163;28;20474;-75
2021/05/05 07:17:49;;;;;;;4.77;1.20;;;12.60;99.90;;;;;;5059854;28;20489;-75
2021/05/05 07:20:16;;;;;;;3.13;0.70;;;12.30;99.90;;;;;;5059008;28;20481;-74
2021/05/05 07:22:44;;;;;;;1.83;1.00;;;12.30;99.90;;;;;;5050439;28;20468;-76
2021/05/05 07:25:12;;;;;;;2.87;0.97;;;12.40;99.90;;;;;;5050335;28;20464;-74
2021/05/05 07:27:39;;;;;;;1.63;0.80;;;12.40;99.90;;;;;;5058073;28;20480;-75
2021/05/05 07:30:08;;;;;;;1.47;1.00;;;12.30;99.90;;;;;;5050959;28;20485;-74
2021/05/05 07:32:36;;;;;;;4.00;0.97;;;12.10;99.90;;;;;;5050007;28;21160;-74
2021/05/05 07:35:08;;;;;;;1.27;1.17;;;12.00;99.90;;;;;;5054968;28;20824;-73
2021/05/05 07:37:57;;;;;;;3.60;1.00;;;12.00;99.90;;;;;;5054840;28;20854;-74
2021/05/05 07:46:16;;;;;;;3.13;0.90;;;11.80;99.90;;;;;;5051684;28;21004;-77
2021/05/05 07:48:49;;;;;;;2.90;1.10;;;11.40;99.90;;;;;;5054433;28;20457;-77
2021/05/05 07:51:16;;;;;;;3.17;1.00;;;11.30;99.90;;;;;;5065146;28;20485;-76
2021/05/05 07:53:43;;;;;;;1.43;0.87;;;11.20;96.90;;;;;;5047799;28;20487;-76
2021/05/05 07:56:11;;;;;;;2.20;0.83;;;11.30;98.90;;;;;;5052234;28;20464;-76
2021/05/05 07:58:38;;;;;;;2.20;0.80;;;11.40;99.90;;;;;;5048796;28;20451;-76
2021/05/05 08:01:05;;;;;;;3.60;1.33;;;11.50;97.20;;;;;;5055597;28;20476;-76
2021/05/05 08:03:31;;;;;;;0.80;0.80;;;11.50;99.90;;;;;;5055167;28;20803;-76
2021/05/05 08:05:59;;;;;;;2.00;1.00;;;11.60;97.10;;;;;;5070865;28;20469;-76
2021/05/05 08:08:26;;;;;;;2.07;1.00;;;11.80;96.00;;;;;;5061062;28;20523;-77
2021/05/05 08:10:53;;;;;;;7.13;1.57;;;11.90;93.10;;;;;;5057482;28;20563;-76
2021/05/05 08:13:21;;;;;;;1.50;0.77;;;11.80;93.60;;;;;;5055516;28;20488;-76
2021/05/05 08:15:49;;;;;;;1.70;0.93;;;11.80;91.60;;;;;;5058251;28;20454;-77
2021/05/05 08:18:16;;;;;;;2.27;0.80;;;11.80;91.40;;;;;;5055456;28;20839;-78
2021/05/05 08:20:43;;;;;;;2.10;1.00;;;11.90;97.50;;;;;;5046063;28;20533;-78
2021/05/05 08:23:14;;;;;;;2.17;1.00;;;12.20;97.50;;;;;;5058421;28;20450;-78
2021/05/05 08:25:41;;;;;;;2.60;1.10;;;12.40;97.30;;;;;;5052085;28;21062;-76
2021/05/05 08:28:08;;;;;;;3.17;1.10;;;12.50;97.90;;;;;;5054492;28;20528;-77
2021/05/05 08:30:36;;;;;;;2.20;0.90;;;12.40;90.10;;;;;;5055503;28;20926;-76
2021/05/05 08:33:04;;;;;;;3.30;1.10;;;12.30;81.70;;;;;;5056995;28;20950;-76
2021/05/05 08:35:32;;;;;;;3.47;0.90;;;12.30;76.50;;;;;;5052568;28;20474;-76
2021/05/05 08:37:59;;;;;;;2.83;1.10;;;12.10;74.00;;;;;;5052149;28;20457;-77
2021/05/05 08:40:27;;;;;;;1.30;1.03;;;12.10;70.70;;;;;;5055444;28;20480;-76
2021/05/05 08:42:55;;;;;;;2.40;0.90;;;12.00;64.80;;;;;;5061319;28;20451;-77
2021/05/05 08:45:24;;;;;;;0.80;0.80;;;11.90;59.40;;;;;;5062205;28;21083;-77
2021/05/05 08:47:54;;;;;;;5.00;0.97;;;11.70;58.90;;;;;;5053209;28;20472;-77
2021/05/05 08:50:23;;;;;;;2.20;0.90;;;11.80;65.30;;;;;;5056258;28;20562;-74
2021/05/05 08:52:51;;;;;;;3.60;1.10;;;11.90;70.30;;;;;;5058468;28;20996;-75
2021/05/05 08:55:20;;;;;;;2.27;0.90;;;11.60;69.40;;;;;;5051695;28;20490;-76
2021/05/05 08:57:49;;;;;;;2.80;0.80;;;11.60;71.40;;;;;;5057810;28;20466;-75
2021/05/05 09:00:19;;;;;;;2.70;0.90;;;11.80;77.30;;;;;;5056537;28;20489;-76
2021/05/05 09:02:47;;;;;;;1.97;1.13;;;11.70;64.20;;;;;;5054701;28;20486;-76
2021/05/05 09:05:53;;;;;;;1.27;0.93;;;11.90;64.30;;;;;;5053881;28;20584;-76
2021/05/05 09:08:21;;;;;;;2.00;0.90;;;11.70;65.40;;;;;;5058927;28;21172;-74
2021/05/05 09:10:56;;;;;;;1.07;0.80;;;11.70;61.00;;;;;;5053458;28;20485;-74
2021/05/05 09:13:43;;;;;;;1.50;1.10;;;11.30;57.50;;;;;;5053353;28;20494;-77
2021/05/05 09:16:12;;;;;;;2.63;1.20;;;11.30;59.40;;;;;;5066530;28;20552;-75
2021/05/05 09:18:53;;;;;;;1.03;0.90;;;11.40;62.80;;;;;;5066114;28;20472;-75
2021/05/05 09:21:30;;;;;;;2.53;1.57;;;11.40;68.40;;;;;;5055651;28;20485;-76
2021/05/05 09:24:21;;;;;;;1.70;0.90;;;11.10;59.00;;;;;;5068063;28;20481;-76
2021/05/05 09:26:51;;;;;;;4.20;0.77;;;11.00;65.20;;;;;;5044316;28;20475;-77
2021/05/05 09:29:20;;;;;;;2.27;0.90;;;11.10;64.50;;;;;;5050029;28;20465;-75
2021/05/05 09:31:47;;;;;;;1.73;0.90;;;11.20;65.80;;;;;;5055158;28;20462;-76
2021/05/05 09:34:14;;;;;;;3.20;1.00;;;11.50;72.20;;;;;;5055018;28;20226;-75
2021/05/05 09:36:56;;;;;;;2.40;0.77;;;11.70;72.40;;;;;;5048354;28;20999;-74
2021/05/05 09:39:29;;;;;;;2.92;1.00;;;11.80;65.20;;;;;;5062290;28;20771;-75
2021/05/05 09:41:56;;;;;;;2.10;1.07;;;11.80;57.30;;;;;;5054631;28;20207;-75
2021/05/05 09:44:24;;;;;;;4.27;1.40;;;11.90;55.20;;;;;;5049565;28;21427;-76
2021/05/05 09:46:57;;;;;;;1.67;0.90;;;12.20;60.90;;;;;;5055976;28;20903;-76
2021/05/05 09:49:29;;;;;;;0.90;0.80;;;12.20;52.70;;;;;;5053328;28;21013;-76
2021/05/05 09:52:00;;;;;;;2.70;0.97;;;12.20;46.70;;;;;;5054519;28;20452;-76
2021/05/05 09:54:30;;;;;;;1.63;0.90;;;12.20;45.50;;;;;;5054872;28;20803;-76
2021/05/05 09:57:18;;;;;;;4.63;0.90;;;12.30;48.90;;;;;;5055426;28;20460;-77
2021/05/05 10:00:09;;;;;;;1.53;0.80;;;12.30;43.40;;;;;;5058216;28;20842;-75
2021/05/05 10:02:45;;;;;;;2.10;1.03;;;12.30;43.30;;;;;;5054722;28;20458;-77
2021/05/05 10:05:14;;;;;;;2.60;1.10;;;12.20;40.40;;;;;;5059131;28;20547;-76
2021/05/05 10:07:56;;;;;;;4.80;1.00;;;12.10;44.90;;;;;;5060391;28;20554;-76
2021/05/05 10:10:25;;;;;;;2.87;1.30;;;12.20;42.80;;;;;;5053606;28;20580;-77
2021/05/05 10:12:54;;;;;;;3.30;0.90;;;12.40;46.80;;;;;;5057414;28;20710;-76
2021/05/05 10:15:22;;;;;;;8.53;1.07;;;12.50;43.30;;;;;;5060025;28;20484;-74
2021/05/05 10:17:51;;;;;;;3.67;1.03;;;12.40;41.60;;;;;;5057045;28;20471;-75
2021/05/05 10:20:20;;;;;;;1.67;0.80;;;12.40;38.90;;;;;;5048533;28;20488;-75
2021/05/05 10:22:48;;;;;;;1.00;0.80;;;12.50;37.80;;;;;;5056025;28;21029;-76
2021/05/05 10:25:17;;;;;;;3.40;0.90;;;12.50;35.50;;;;;;5053395;28;20447;-76
2021/05/05 10:27:45;;;;;;;1.43;1.10;;;12.40;30.80;;;;;;5050861;28;20872;-75
2021/05/05 10:30:16;;;;;;;2.27;1.03;;;12.60;34.20;;;;;;5054529;28;20471;-76
2021/05/05 10:32:47;;;;;;;1.47;0.90;;;12.50;29.50;;;;;;5058719;28;21024;-75
2021/05/05 10:35:16;;;;;;;1.63;0.80;;;12.20;27.30;;;;;;5057387;28;20519;-75
2021/05/05 10:37:49;;;;;;;4.80;1.03;;;12.20;29.10;;;;;;5053470;28;20483;-75
2021/05/05 10:40:23;;;;;;;4.10;1.00;;;12.40;28.70;;;;;;5050846;28;20778;-76
2021/05/05 10:42:57;;;;;;;1.13;0.80;;;12.10;28.70;;;;;;5055547;28;20557;-75
2021/05/05 10:45:33;;;;;;;0.60;0.60;;;12.40;29.60;;;;;;5051036;28;20460;-75
2021/05/05 10:48:10;;;;;;;1.17;0.80;;;12.30;28.40;;;;;;5054512;28;20468;-75
2021/05/05 10:50:59;;;;;;;2.43;0.70;;;12.40;29.90;;;;;;5056422;28;20488;-75
2021/05/05 10:53:28;;;;;;;1.43;0.70;;;12.50;27.50;;;;;;5050484;28;20472;-75
2021/05/05 10:55:59;;;;;;;3.73;0.77;;;12.50;25.50;;;;;;5056271;28;20452;-77
2021/05/05 10:58:28;;;;;;;1.13;0.80;;;12.40;32.90;;;;;;5057365;28;20533;-74
2021/05/05 11:00:58;;;;;;;1.53;1.10;;;12.30;46.40;;;;;;5053439;28;20656;-74
2021/05/05 11:04:02;;;;;;;1.43;0.60;;;12.00;70.00;;;;;;5052687;28;20462;-75
2021/05/05 11:06:47;;;;;;;0.77;0.60;;;11.60;95.60;;;;;;5048555;28;20467;-73
2021/05/05 11:09:41;;;;;;;1.27;0.63;;;11.20;99.90;;;;;;5051196;28;20470;-73
2021/05/05 11:12:44;;;;;;;1.90;0.70;;;10.90;99.90;;;;;;5066585;28;20478;-74
2021/05/05 11:15:14;;;;;;;0.53;0.50;;;10.60;99.90;;;;;;5040678;28;20493;-74
2021/05/05 11:17:41;;;;;;;0.60;0.60;;;10.70;99.90;;;;;;5052534;28;20466;-75
2021/05/05 11:20:10;;;;;;;0.50;0.50;;;10.80;99.90;;;;;;5055440;28;20475;-78
2021/05/05 11:22:48;;;;;;;0.50;0.50;;;10.80;99.90;;;;;;5054592;28;20469;-78
2021/05/05 11:25:28;;;;;;;0.70;0.60;;;10.80;99.90;;;;;;5052640;28;20498;-77
2021/05/05 11:27:58;;;;;;;0.60;0.60;;;10.70;99.90;;;;;;5052905;28;20947;-78
2021/05/05 11:30:49;;;;;;;0.90;0.60;;;10.80;99.90;;;;;;5048992;28;20497;-78
2021/05/05 11:33:17;;;;;;;0.57;0.57;;;10.60;99.90;;;;;;5046798;28;20461;-77
2021/05/05 11:35:45;;;;;;;0.60;0.60;;;10.50;99.90;;;;;;5051066;28;20497;-77
2021/05/05 11:38:19;;;;;;;0.80;0.50;;;10.30;99.90;;;;;;5059427;28;20470;-78
2021/05/05 11:41:01;;;;;;;1.25;0.80;;;10.40;99.90;;;;;;5055786;28;20480;-78
2021/05/05 11:43:31;;;;;;;1.63;0.90;;;10.60;99.90;;;;;;5052682;28;20210;-77
2021/05/05 11:46:03;;;;;;;1.50;0.77;;;10.70;99.90;;;;;;5068819;28;20835;-78
2021/05/05 11:48:38;;;;;;;0.97;0.70;;;10.50;99.90;;;;;;5055444;28;20510;-77
2021/05/05 11:51:22;;;;;;;1.53;0.70;;;10.50;99.90;;;;;;5061764;28;20487;-76
2021/05/05 11:53:49;;;;;;;0.53;0.53;;;10.40;99.90;;;;;;5041721;28;20487;-76
2021/05/05 11:56:22;;;;;;;1.30;0.63;;;10.40;99.90;;;;;;5054975;28;20470;-77
2021/05/05 11:58:58;;;;;;;2.70;0.90;;;10.80;99.90;;;;;;5054859;28;20482;-78
2021/05/05 12:01:31;;;;;;;1.13;1.00;;;10.60;99.90;;;;;;5057652;28;20509;-76
2021/05/05 12:04:19;;;;;;;1.57;0.90;;;10.70;99.90;;;;;;5051707;28;20956;-77
2021/05/05 12:06:48;;;;;;;1.47;0.70;;;10.90;99.90;;;;;;5055471;28;20461;-76
2021/05/05 12:09:29;;;;;;;0.83;0.70;;;11.20;99.90;;;;;;5047129;28;20474;-76
2021/05/05 12:12:22;;;;;;;0.80;0.80;;;11.30;99.90;;;;;;5061155;28;20974;-76
2021/05/05 12:14:51;;;;;;;0.70;0.70;;;11.60;99.90;;;;;;5054026;28;21126;-76
2021/05/05 12:17:29;;;;;;;0.80;0.80;;;11.90;99.90;;;;;;5058086;28;20894;-76
2021/05/05 12:20:06;;;;;;;0.90;0.63;;;12.10;99.90;;;;;;5054264;28;20929;-76
2021/05/05 12:22:35;;;;;;;2.50;0.83;;;12.20;99.90;;;;;;5056957;28;20804;-77
2021/05/05 12:25:10;;;;;;;1.30;0.90;;;12.50;99.90;;;;;;5058448;28;20463;-78
2021/05/05 12:27:38;;;;;;;0.70;0.70;;;12.60;99.90;;;;;;5053966;28;20463;-77
2021/05/05 12:30:08;;;;;;;1.60;0.70;;;12.70;99.90;;;;;;5055834;28;20479;-76
2021/05/05 12:32:46;;;;;;;3.63;0.90;;;12.70;99.90;;;;;;5060922;28;20455;-78
2021/05/05 12:35:21;;;;;;;0.70;0.70;;;12.70;99.90;;;;;;5052294;28;20493;-77
2021/05/05 12:37:49;;;;;;;2.20;0.80;;;12.80;99.90;;;;;;5053219;28;20459;-77
2021/05/05 12:40:17;;;;;;;0.93;0.77;;;12.90;97.90;;;;;;5059775;28;20565;-76
2021/05/05 12:42:45;;;;;;;2.17;0.80;;;12.90;92.60;;;;;;5057805;28;20453;-76
2021/05/05 12:45:14;;;;;;;1.07;0.60;;;12.90;89.90;;;;;;5059572;28;21188;-76
2021/05/05 12:47:43;;;;;;;0.70;0.70;;;12.80;82.30;;;;;;5059167;28;20541;-76
2021/05/05 12:50:13;;;;;;;0.60;0.60;;;12.60;88.20;;;;;;5058609;28;20485;-77
2021/05/05 12:52:42;;;;;;;0.70;0.70;;;12.50;92.70;;;;;;5058872;28;20972;-76
2021/05/05 12:55:27;;;;;;;0.60;0.60;;;12.60;97.80;;;;;;5059604;28;20492;-75
2021/05/05 12:58:05;;;;;;;0.80;0.80;;;12.70;99.90;;;;;;5059549;28;20466;-75
2021/05/05 13:00:34;;;;;;;1.03;0.60;;;12.80;97.50;;;;;;5039782;28;20546;-76
2021/05/05 13:03:03;;;;;;;0.63;0.60;;;12.90;99.90;;;;;;5043564;28;20840;-76
2021/05/05 13:05:32;;;;;;;2.20;0.80;;;13.00;98.30;;;;;;5050654;28;20447;-75
2021/05/05 13:08:10;;;;;;;1.77;0.77;;;12.90;96.60;;;;;;5053968;28;20276;-78